Time;durP1;ratioP1;P1;durP2;ratioP2;P2;SDS_P1;SDS_P2;PMS_P1;PMS_P2;Temp;Humidity;BMP_temperature;BMP_pressure;BME280_temperature;BME280_humidity;BME280_pressure;Samples;Min_cycle;Max_cycle;Signal;HPM_P1;HPM_P2
2021/11/19 00:01:32;;;;;;;35.88;14.27;;;11.90;99.90;;;;;;5007055;28;20110;-84
2021/11/19 00:03:58;;;;;;;38.58;14.55;;;11.90;99.90;;;;;;4997524;28;20072;-85
2021/11/19 00:06:24;;;;;;;40.92;14.20;;;11.90;99.90;;;;;;5012761;28;20065;-85
2021/11/19 00:08:50;;;;;;;30.60;13.15;;;11.90;99.90;;;;;;5001608;28;20052;-84
2021/11/19 00:11:20;;;;;;;37.88;13.77;;;11.80;99.90;;;;;;5009544;28;20038;-84
2021/11/19 00:13:47;;;;;;;29.42;13.20;;;11.90;99.90;;;;;;5010457;28;20395;-85
2021/11/19 00:16:14;;;;;;;35.38;14.52;;;11.90;99.90;;;;;;5009898;28;20189;-85
2021/11/19 00:18:40;;;;;;;36.22;14.07;;;11.80;99.90;;;;;;5005293;28;20128;-85
2021/11/19 00:21:06;;;;;;;31.98;14.07;;;11.80;99.90;;;;;;5008265;28;20048;-85
2021/11/19 00:23:32;;;;;;;39.70;13.95;;;11.90;99.90;;;;;;5000990;28;20041;-84
2021/11/19 00:25:58;;;;;;;34.72;13.68;;;11.80;99.90;;;;;;4985566;28;20029;-85
2021/11/19 00:28:25;;;;;;;28.92;13.00;;;11.80;99.90;;;;;;5001580;28;20045;-84
2021/11/19 00:30:50;;;;;;;31.98;13.20;;;11.80;99.90;;;;;;4989328;28;20045;-84
2021/11/19 00:33:16;;;;;;;34.55;13.30;;;11.80;99.90;;;;;;5012614;28;20041;-84
2021/11/19 00:35:45;;;;;;;33.80;13.05;;;11.80;99.90;;;;;;4992551;28;20373;-84
2021/11/19 00:38:12;;;;;;;30.00;12.85;;;11.80;99.90;;;;;;5000690;28;20033;-84
2021/11/19 00:40:49;;;;;;;32.38;13.05;;;11.90;99.90;;;;;;4990806;28;20049;-84
2021/11/19 00:43:15;;;;;;;31.15;11.25;;;11.80;99.90;;;;;;5008684;28;20079;-84
2021/11/19 00:45:41;;;;;;;36.20;13.75;;;11.80;99.90;;;;;;5010880;28;20034;-84
2021/11/19 00:48:09;;;;;;;29.25;12.00;;;11.90;99.90;;;;;;5002551;28;20539;-84
2021/11/19 00:50:52;;;;;;;26.88;11.75;;;11.90;99.90;;;;;;4995023;28;20042;-84
2021/11/19 00:53:18;;;;;;;33.03;11.55;;;11.90;99.90;;;;;;4990964;28;20034;-84
2021/11/19 00:55:44;;;;;;;28.02;11.57;;;11.90;99.90;;;;;;5006037;28;20172;-84
2021/11/19 00:58:10;;;;;;;29.23;10.73;;;11.90;99.90;;;;;;4990916;28;20528;-84
2021/11/19 01:00:41;;;;;;;28.25;11.45;;;11.90;99.90;;;;;;5004957;28;20048;-84
2021/11/19 01:03:07;;;;;;;25.73;11.17;;;11.90;99.90;;;;;;5007970;28;20092;-84
2021/11/19 01:05:33;;;;;;;26.17;10.30;;;11.90;99.90;;;;;;4996429;28;20048;-84
2021/11/19 01:07:59;;;;;;;24.00;10.70;;;12.00;99.90;;;;;;5003935;28;20033;-84
2021/11/19 01:10:29;;;;;;;22.60;10.02;;;12.00;99.90;;;;;;5008468;28;20064;-84
2021/11/19 01:12:55;;;;;;;20.35;9.32;;;12.00;99.90;;;;;;4995837;28;20557;-85
2021/11/19 01:15:50;;;;;;;22.27;9.35;;;12.00;99.90;;;;;;4992807;28;20030;-84
2021/11/19 01:18:19;;;;;;;22.00;8.50;;;12.00;99.90;;;;;;4993366;28;20519;-85
2021/11/19 01:20:54;;;;;;;17.08;8.15;;;12.00;99.90;;;;;;4985418;28;20395;-85
2021/11/19 01:23:22;;;;;;;24.17;8.93;;;12.00;99.90;;;;;;4982528;28;20128;-84
2021/11/19 01:25:55;;;;;;;17.80;8.30;;;12.00;99.90;;;;;;5009392;28;20084;-84
2021/11/19 01:28:22;;;;;;;21.95;8.45;;;12.00;99.90;;;;;;5002743;28;20304;-84
2021/11/19 01:31:02;;;;;;;20.05;7.65;;;12.00;99.90;;;;;;5002609;28;20040;-84
2021/11/19 01:33:28;;;;;;;21.45;8.35;;;12.00;99.90;;;;;;4986022;28;20381;-84
2021/11/19 01:35:54;;;;;;;17.88;7.97;;;12.10;99.90;;;;;;5002158;28;20124;-84
2021/11/19 01:38:20;;;;;;;23.77;7.93;;;12.10;99.90;;;;;;4992224;28;20041;-84
2021/11/19 01:40:50;;;;;;;17.60;7.80;;;12.10;99.90;;;;;;5013600;28;20392;-84
2021/11/19 01:43:17;;;;;;;21.08;7.47;;;12.10;99.90;;;;;;5009266;28;20060;-84
2021/11/19 01:45:47;;;;;;;20.45;7.78;;;12.10;99.90;;;;;;5009812;28;20103;-84
2021/11/19 01:48:16;;;;;;;19.65;8.43;;;12.10;99.90;;;;;;5015271;28;20040;-84
2021/11/19 01:50:44;;;;;;;15.60;8.43;;;12.10;99.90;;;;;;5005734;28;20113;-84
2021/11/19 01:53:15;;;;;;;21.58;8.55;;;12.10;99.90;;;;;;4999675;28;20041;-84
2021/11/19 01:56:06;;;;;;;19.63;8.43;;;12.10;99.90;;;;;;4990523;28;20512;-84
2021/11/19 01:58:41;;;;;;;15.70;7.55;;;12.10;99.90;;;;;;5003018;28;20038;-84
2021/11/19 02:01:11;;;;;;;23.20;8.93;;;12.10;99.90;;;;;;4991942;28;20408;-84
2021/11/19 02:03:39;;;;;;;19.27;8.60;;;12.10;99.90;;;;;;4996264;28;20080;-84
2021/11/19 02:06:08;;;;;;;19.10;8.50;;;12.10;99.90;;;;;;4995756;28;20484;-84
2021/11/19 02:08:38;;;;;;;21.13;8.98;;;12.10;99.90;;;;;;4995326;28;20041;-85
2021/11/19 02:11:31;;;;;;;16.60;9.52;;;12.10;99.90;;;;;;5005483;28;20041;-84
2021/11/19 02:14:37;;;;;;;19.67;10.45;;;12.10;99.90;;;;;;4997789;28;20041;-84
2021/11/19 02:17:06;;;;;;;17.58;9.70;;;12.10;99.90;;;;;;4992927;28;20469;-84
2021/11/19 02:19:55;;;;;;;22.90;10.43;;;12.00;99.90;;;;;;4985795;28;20330;-85
2021/11/19 02:22:31;;;;;;;26.40;10.82;;;12.00;99.90;;;;;;4986435;28;20034;-84
2021/11/19 02:25:14;;;;;;;29.83;9.30;;;12.00;99.90;;;;;;4987332;28;20045;-84
2021/11/19 02:27:59;;;;;;;24.55;10.05;;;12.00;99.90;;;;;;5029051;28;20046;-84
2021/11/19 02:30:35;;;;;;;18.60;9.30;;;12.00;99.90;;;;;;4991807;28;20526;-84
2021/11/19 02:33:07;;;;;;;27.13;11.00;;;12.00;99.90;;;;;;4997234;28;20084;-84
2021/11/19 02:35:51;;;;;;;22.33;10.75;;;12.00;99.90;;;;;;4995087;28;20062;-84
2021/11/19 02:38:19;;;;;;;22.98;10.95;;;12.00;99.90;;;;;;4994595;28;20038;-85
2021/11/19 02:40:46;;;;;;;25.33;10.70;;;12.00;99.90;;;;;;5000256;28;20048;-84
2021/11/19 02:43:29;;;;;;;22.83;11.55;;;12.00;99.90;;;;;;5007606;28;20399;-84
2021/11/19 02:45:55;;;;;;;22.60;11.43;;;12.00;99.90;;;;;;5009128;28;20037;-84
2021/11/19 02:48:24;;;;;;;22.23;11.60;;;12.00;99.90;;;;;;5010672;28;20051;-84
2021/11/19 02:50:52;;;;;;;24.50;11.90;;;11.90;99.90;;;;;;4984982;28;20440;-84
2021/11/19 02:53:18;;;;;;;29.83;12.68;;;11.90;99.90;;;;;;4997825;28;20033;-84
2021/11/19 02:55:46;;;;;;;23.80;11.43;;;11.90;99.90;;;;;;5007534;28;20045;-84
2021/11/19 02:58:17;;;;;;;22.05;11.30;;;11.90;99.90;;;;;;5003698;28;20041;-84
2021/11/19 03:01:09;;;;;;;24.33;11.93;;;11.90;99.90;;;;;;5004320;28;20038;-85
2021/11/19 03:03:37;;;;;;;24.63;12.68;;;11.90;99.90;;;;;;4996999;28;20038;-84
2021/11/19 03:06:04;;;;;;;25.83;12.30;;;11.90;99.90;;;;;;5002788;28;20033;-84
2021/11/19 03:08:30;;;;;;;22.42;12.70;;;11.90;99.90;;;;;;4990926;28;20034;-84
2021/11/19 03:10:56;;;;;;;22.50;12.43;;;11.90;99.90;;;;;;5002755;28;20514;-84
2021/11/19 03:13:25;;;;;;;23.02;12.10;;;11.80;99.90;;;;;;4993063;28;20044;-84
2021/11/19 03:15:52;;;;;;;24.08;12.75;;;11.90;99.90;;;;;;4987283;28;20043;-84
2021/11/19 03:18:20;;;;;;;30.75;14.23;;;11.90;99.90;;;;;;5012069;28;20159;-84
2021/11/19 03:20:50;;;;;;;23.67;12.38;;;12.00;99.90;;;;;;5003244;28;20100;-84
2021/11/19 03:23:16;;;;;;;23.67;12.07;;;11.90;99.90;;;;;;4988423;28;20041;-85
2021/11/19 03:25:44;;;;;;;21.88;12.43;;;12.00;99.90;;;;;;5007812;28;20037;-84
2021/11/19 03:28:12;;;;;;;24.20;12.40;;;12.00;99.90;;;;;;5013649;28;22191;-84
2021/11/19 03:30:40;;;;;;;22.45;12.15;;;12.00;99.90;;;;;;4995142;28;20056;-84
2021/11/19 03:33:07;;;;;;;24.10;12.90;;;12.00;99.90;;;;;;5005021;28;20029;-84
2021/11/19 03:35:33;;;;;;;22.10;11.38;;;12.00;99.90;;;;;;5002564;28;20049;-85
2021/11/19 03:38:00;;;;;;;28.67;13.38;;;12.00;99.90;;;;;;5005094;28;20410;-84
2021/11/19 03:40:31;;;;;;;20.85;12.23;;;12.00;99.90;;;;;;5002376;28;20029;-84
2021/11/19 03:42:59;;;;;;;25.27;12.32;;;12.00;99.90;;;;;;5002464;28;20033;-85
2021/11/19 03:45:29;;;;;;;23.20;12.43;;;12.00;99.90;;;;;;5003293;28;20041;-85
2021/11/19 03:47:56;;;;;;;28.77;13.10;;;12.00;99.90;;;;;;4987817;28;20066;-84
2021/11/19 03:50:37;;;;;;;30.83;12.77;;;12.00;99.90;;;;;;4981779;28;20455;-84
2021/11/19 03:53:03;;;;;;;29.33;13.32;;;12.00;99.90;;;;;;5001988;28;20085;-85
2021/11/19 03:55:33;;;;;;;21.52;12.13;;;12.00;99.90;;;;;;4980996;28;20038;-84
2021/11/19 03:57:59;;;;;;;26.48;12.50;;;12.00;99.90;;;;;;5004542;28;20065;-84
2021/11/19 04:00:32;;;;;;;24.60;13.30;;;12.00;99.90;;;;;;5011570;28;20040;-84
2021/11/19 04:02:59;;;;;;;23.52;12.40;;;12.00;99.90;;;;;;5002330;28;20040;-84
2021/11/19 04:05:26;;;;;;;22.90;12.18;;;12.00;99.90;;;;;;5011577;28;20029;-84
2021/11/19 04:07:52;;;;;;;24.73;12.30;;;12.00;99.90;;;;;;5009001;28;20092;-84
2021/11/19 04:10:18;;;;;;;26.30;12.65;;;12.00;99.90;;;;;;5004597;28;20038;-84
2021/11/19 04:12:44;;;;;;;22.02;12.32;;;12.10;99.90;;;;;;4998593;28;20128;-84
2021/11/19 04:15:15;;;;;;;22.38;12.35;;;12.10;99.90;;;;;;4996424;28;20037;-85
2021/11/19 04:17:42;;;;;;;23.17;12.35;;;12.10;99.90;;;;;;4994552;28;20045;-84
2021/11/19 04:20:09;;;;;;;21.63;11.90;;;12.10;99.90;;;;;;4989856;28;20034;-85
2021/11/19 04:22:35;;;;;;;23.88;12.38;;;12.10;99.90;;;;;;5004182;28;20040;-84
2021/11/19 04:25:04;;;;;;;32.10;13.27;;;12.10;99.90;;;;;;5009334;28;20045;-84
2021/11/19 04:27:31;;;;;;;23.75;13.35;;;12.10;99.90;;;;;;5011423;28;20381;-85
2021/11/19 04:29:57;;;;;;;27.88;12.80;;;12.10;99.90;;;;;;5012847;28;20483;-84
2021/11/19 04:32:24;;;;;;;24.25;13.10;;;12.10;99.90;;;;;;5008703;28;20039;-84
2021/11/19 04:34:52;;;;;;;30.55;13.95;;;12.10;99.90;;;;;;4978902;28;20477;-84
2021/11/19 04:37:19;;;;;;;25.77;12.93;;;12.20;99.90;;;;;;5010156;28;20037;-84
2021/11/19 04:39:45;;;;;;;31.92;13.18;;;12.10;99.90;;;;;;4987887;28;20033;-85
2021/11/19 04:42:11;;;;;;;26.10;13.68;;;12.10;99.90;;;;;;4986970;28;20528;-84
2021/11/19 04:44:38;;;;;;;29.50;14.40;;;12.10;99.90;;;;;;4997685;28;20069;-84
2021/11/19 04:47:04;;;;;;;30.90;12.73;;;12.10;99.90;;;;;;5004175;28;20388;-84
2021/11/19 04:49:30;;;;;;;21.25;12.68;;;12.10;99.90;;;;;;5008414;28;20583;-84
2021/11/19 04:51:56;;;;;;;25.40;12.75;;;12.10;99.90;;;;;;4998664;28;20124;-84
2021/11/19 04:54:23;;;;;;;23.67;13.50;;;12.10;99.90;;;;;;4999868;28;20107;-84
2021/11/19 04:56:51;;;;;;;23.30;12.98;;;12.10;99.90;;;;;;4996777;28;20041;-84
2021/11/19 04:59:17;;;;;;;20.83;12.48;;;12.10;99.90;;;;;;5005912;28;20069;-84
2021/11/19 05:01:46;;;;;;;27.88;12.63;;;12.10;99.90;;;;;;4985565;28;20033;-84
2021/11/19 05:04:12;;;;;;;22.88;11.93;;;12.10;99.90;;;;;;4994015;28;20459;-84
2021/11/19 05:06:38;;;;;;;21.00;12.02;;;12.10;99.90;;;;;;5006956;28;20120;-85
2021/11/19 05:09:05;;;;;;;24.85;12.70;;;12.10;99.90;;;;;;5007483;28;20060;-85
2021/11/19 05:11:56;;;;;;;24.77;12.70;;;12.10;99.90;;;;;;4985068;28;20627;-85
2021/11/19 05:14:22;;;;;;;23.85;12.05;;;12.10;99.90;;;;;;4983886;28;20029;-85
2021/11/19 05:16:48;;;;;;;27.75;11.90;;;12.20;99.90;;;;;;5009933;28;20030;-85
2021/11/19 05:19:15;;;;;;;21.38;11.07;;;12.20;99.90;;;;;;5006828;28;20045;-84
2021/11/19 05:21:41;;;;;;;20.60;10.93;;;12.20;99.90;;;;;;5004003;28;20034;-84
2021/11/19 05:24:08;;;;;;;23.98;10.63;;;12.20;99.90;;;;;;4996368;28;20378;-82
2021/11/19 05:26:38;;;;;;;19.90;11.30;;;12.20;99.90;;;;;;5008041;28;20052;-83
2021/11/19 05:29:05;;;;;;;24.33;11.02;;;12.20;99.90;;;;;;5015084;28;20037;-82
2021/11/19 05:31:32;;;;;;;21.23;10.95;;;12.10;99.90;;;;;;5012341;28;20395;-83
2021/11/19 05:33:58;;;;;;;23.83;11.27;;;12.20;99.90;;;;;;4995535;28;21297;-84
2021/11/19 05:36:23;;;;;;;22.65;10.48;;;12.20;99.90;;;;;;4982997;28;20335;-84
2021/11/19 05:38:49;;;;;;;20.15;11.18;;;12.20;99.90;;;;;;4984257;28;20053;-85
2021/11/19 05:41:17;;;;;;;20.73;10.75;;;12.20;99.90;;;;;;5010849;28;20030;-84
2021/11/19 05:43:46;;;;;;;19.58;11.73;;;12.20;99.90;;;;;;4991320;28;20049;-84
2021/11/19 05:46:13;;;;;;;23.88;11.07;;;12.20;99.90;;;;;;5013144;28;20522;-84
2021/11/19 05:48:39;;;;;;;21.55;10.77;;;12.20;99.90;;;;;;4992461;28;20040;-84
2021/11/19 05:51:05;;;;;;;25.40;11.43;;;12.20;99.90;;;;;;4995692;28;20037;-84
2021/11/19 05:53:32;;;;;;;23.00;10.60;;;12.20;99.90;;;;;;4997881;28;20041;-84
2021/11/19 05:55:58;;;;;;;26.77;11.95;;;12.20;99.90;;;;;;5009678;28;20042;-85
2021/11/19 05:58:23;;;;;;;31.05;12.00;;;12.20;99.90;;;;;;5011285;28;20037;-84
2021/11/19 06:00:54;;;;;;;26.15;11.55;;;12.20;99.90;;;;;;4989898;28;20077;-84
2021/11/19 06:03:20;;;;;;;24.02;12.18;;;12.20;99.90;;;;;;5005605;28;20034;-84
2021/11/19 06:05:46;;;;;;;22.95;11.52;;;12.20;99.90;;;;;;4999964;28;20041;-84
2021/11/19 06:08:12;;;;;;;28.40;11.25;;;12.20;99.90;;;;;;5011581;28;20396;-85
2021/11/19 06:10:51;;;;;;;25.50;12.38;;;12.20;99.90;;;;;;5014294;28;20037;-84
2021/11/19 06:13:23;;;;;;;27.55;11.38;;;12.20;99.90;;;;;;5011448;28;20045;-84
2021/11/19 06:15:57;;;;;;;27.27;12.23;;;12.20;99.90;;;;;;5005075;28;20042;-84
2021/11/19 06:18:28;;;;;;;25.58;12.00;;;12.20;99.90;;;;;;5006772;28;20087;-85
2021/11/19 06:20:57;;;;;;;21.60;11.90;;;12.20;99.90;;;;;;5005223;28;20034;-84
2021/11/19 06:23:35;;;;;;;26.02;11.43;;;12.20;99.90;;;;;;5009163;28;20030;-85
2021/11/19 06:26:05;;;;;;;28.00;12.27;;;12.20;99.90;;;;;;4990596;28;20619;-84
2021/11/19 06:28:34;;;;;;;20.95;11.70;;;12.20;99.90;;;;;;5009051;28;20045;-85
2021/11/19 06:31:00;;;;;;;27.67;11.88;;;12.10;99.90;;;;;;5004346;28;20041;-85
2021/11/19 06:33:26;;;;;;;23.77;11.30;;;12.20;99.90;;;;;;5010773;28;20037;-84
2021/11/19 06:35:52;;;;;;;28.70;12.13;;;12.10;99.90;;;;;;5000761;28;20255;-85
2021/11/19 06:38:18;;;;;;;22.35;11.98;;;12.20;99.90;;;;;;5002966;28;20041;-85
2021/11/19 06:40:45;;;;;;;25.08;11.57;;;12.10;99.90;;;;;;4994612;28;20134;-84
2021/11/19 06:43:10;;;;;;;26.13;12.63;;;12.10;99.90;;;;;;4994028;28;20084;-84
2021/11/19 06:45:36;;;;;;;33.17;13.40;;;12.10;99.90;;;;;;4989776;28;20029;-84
2021/11/19 06:48:05;;;;;;;26.88;12.50;;;12.10;99.90;;;;;;5004426;28;20065;-85
2021/11/19 06:50:34;;;;;;;34.75;12.48;;;12.10;99.90;;;;;;4987835;28;20372;-84
2021/11/19 06:53:00;;;;;;;25.65;12.60;;;12.20;99.90;;;;;;5006121;28;20693;-85
2021/11/19 06:55:26;;;;;;;25.10;12.13;;;12.10;99.90;;;;;;5005079;28;20038;-85
2021/11/19 06:57:52;;;;;;;31.70;12.77;;;12.10;99.90;;;;;;5005466;28;20046;-84
2021/11/19 07:00:22;;;;;;;29.50;12.30;;;12.10;99.90;;;;;;5011938;28;20060;-84
2021/11/19 07:02:48;;;;;;;30.75;12.55;;;12.10;99.90;;;;;;5007420;28;20040;-84
2021/11/19 07:05:15;;;;;;;27.92;12.30;;;12.10;99.90;;;;;;5002022;28;20034;-85
2021/11/19 07:07:41;;;;;;;26.67;12.43;;;12.10;99.90;;;;;;5002913;28;20038;-84
2021/11/19 07:10:08;;;;;;;26.42;12.82;;;12.10;99.90;;;;;;5007742;28;20037;-84
2021/11/19 07:12:33;;;;;;;27.98;12.82;;;12.10;99.90;;;;;;5003977;28;20080;-84
2021/11/19 07:14:59;;;;;;;25.52;11.98;;;12.00;99.90;;;;;;5000244;28;20026;-84
2021/11/19 07:17:25;;;;;;;22.80;10.95;;;12.10;99.90;;;;;;4982521;28;20064;-84
2021/11/19 07:19:51;;;;;;;25.75;11.25;;;12.10;99.90;;;;;;5001607;28;20041;-84
2021/11/19 07:22:17;;;;;;;32.10;11.73;;;12.10;99.90;;;;;;5005790;28;20060;-84
2021/11/19 07:24:43;;;;;;;24.70;12.07;;;12.10;99.90;;;;;;5002915;28;20050;-84
2021/11/19 07:27:11;;;;;;;22.45;10.98;;;12.00;99.90;;;;;;5008617;28;20374;-84
2021/11/19 07:29:38;;;;;;;29.13;11.90;;;12.10;99.90;;;;;;5000386;28;20104;-85
2021/11/19 07:32:04;;;;;;;23.65;11.63;;;12.10;99.90;;;;;;5009034;28;20095;-84
2021/11/19 07:34:30;;;;;;;28.45;11.82;;;12.10;99.90;;;;;;5010577;28;20065;-84
2021/11/19 07:36:56;;;;;;;28.70;11.73;;;12.00;99.90;;;;;;4990722;28;20459;-84
2021/11/19 07:39:22;;;;;;;31.60;11.13;;;12.10;99.90;;;;;;5008974;28;20033;-84
2021/11/19 07:41:48;;;;;;;26.02;11.80;;;12.10;99.90;;;;;;5008196;28;20128;-84
2021/11/19 07:44:13;;;;;;;25.60;11.23;;;12.00;99.90;;;;;;5004186;28;20068;-84
2021/11/19 07:46:40;;;;;;;25.75;11.55;;;12.00;99.90;;;;;;4981599;28;20042;-84
2021/11/19 07:49:06;;;;;;;23.08;11.13;;;12.10;99.90;;;;;;5008659;28;20041;-84
2021/11/19 07:51:35;;;;;;;28.55;11.02;;;12.10;99.90;;;;;;5004811;28;20121;-84
2021/11/19 07:54:02;;;;;;;26.25;11.00;;;12.10;99.90;;;;;;5006641;28;20033;-84
2021/11/19 07:56:30;;;;;;;26.13;11.23;;;12.00;99.90;;;;;;5013978;28;20369;-85
2021/11/19 07:59:03;;;;;;;33.13;12.00;;;12.10;99.90;;;;;;4999300;28;20037;-85
2021/11/19 08:01:28;;;;;;;29.27;12.13;;;12.10;99.90;;;;;;5001265;28;20472;-85
2021/11/19 08:03:54;;;;;;;23.65;10.65;;;12.10;99.90;;;;;;4981119;28;20128;-84
2021/11/19 08:06:23;;;;;;;28.05;11.05;;;12.10;99.90;;;;;;5003839;28;20103;-84
2021/11/19 08:08:49;;;;;;;22.95;10.00;;;12.10;99.90;;;;;;4984144;28;20041;-84
2021/11/19 08:11:15;;;;;;;21.65;10.18;;;12.10;99.90;;;;;;5006693;28;20076;-83
2021/11/19 08:13:41;;;;;;;25.85;10.68;;;12.20;99.90;;;;;;5000633;28;20051;-84
2021/11/19 08:16:07;;;;;;;24.67;10.57;;;12.20;99.90;;;;;;5003993;28;20047;-84
2021/11/19 08:18:43;;;;;;;20.17;10.00;;;12.20;99.90;;;;;;5006620;28;20033;-84
2021/11/19 08:21:09;;;;;;;21.73;9.95;;;12.20;99.90;;;;;;4997442;28;20096;-84
2021/11/19 08:23:43;;;;;;;28.33;10.73;;;12.20;99.90;;;;;;5004013;28;20435;-81
2021/11/19 08:26:25;;;;;;;25.98;10.30;;;12.20;99.90;;;;;;5003020;28;20124;-85
2021/11/19 08:28:51;;;;;;;;;;;12.20;99.90;;;;;;4995641;28;20044;-85
2021/11/19 08:31:20;;;;;;;20.15;9.90;;;12.20;99.90;;;;;;4984666;28;19947;-85
2021/11/19 08:33:48;;;;;;;23.67;9.70;;;12.20;99.90;;;;;;5004745;28;20077;-85
2021/11/19 08:36:15;;;;;;;22.70;9.25;;;12.20;99.90;;;;;;4983495;28;20042;-86
2021/11/19 08:38:44;;;;;;;17.20;8.25;;;12.30;99.90;;;;;;4982432;28;20038;-85
2021/11/19 08:41:12;;;;;;;21.85;9.00;;;12.30;99.90;;;;;;4999240;28;20377;-85
2021/11/19 08:43:41;;;;;;;19.38;8.68;;;12.30;99.90;;;;;;4999701;28;20061;-85
2021/11/19 08:46:09;;;;;;;18.02;8.20;;;12.30;99.90;;;;;;4984706;28;20076;-84
2021/11/19 08:48:36;;;;;;;20.15;8.20;;;12.30;99.90;;;;;;5000405;28;20409;-81
2021/11/19 08:51:05;;;;;;;21.95;9.13;;;12.40;99.90;;;;;;5003421;28;20041;-81
2021/11/19 08:53:31;;;;;;;18.60;8.18;;;12.40;99.90;;;;;;5001449;28;20034;-86
2021/11/19 08:55:59;;;;;;;22.20;8.38;;;12.40;99.90;;;;;;5002765;28;20040;-86
2021/11/19 08:58:30;;;;;;;21.40;9.07;;;12.40;99.90;;;;;;4987580;28;20049;-86
2021/11/19 09:00:58;;;;;;;20.02;8.32;;;12.40;99.90;;;;;;5004864;28;20491;-90
2021/11/19 09:03:25;;;;;;;21.75;8.82;;;12.40;99.90;;;;;;4992288;28;20074;-89
2021/11/19 09:05:51;;;;;;;25.88;8.88;;;12.40;99.90;;;;;;4989799;28;20050;-89
2021/11/19 09:08:19;;;;;;;17.38;8.43;;;12.40;99.90;;;;;;4990800;28;20100;-89
2021/11/19 09:10:48;;;;;;;20.10;8.13;;;12.50;99.90;;;;;;5002575;28;20045;-88
2021/11/19 09:13:14;;;;;;;16.63;8.30;;;12.50;99.90;;;;;;4981021;28;20033;-88
2021/11/19 09:15:40;;;;;;;17.58;8.02;;;12.40;99.90;;;;;;5000305;28;20381;-89
2021/11/19 09:18:24;;;;;;;23.17;8.68;;;12.50;99.90;;;;;;4992236;28;20423;-88
2021/11/19 09:21:02;;;;;;;22.40;8.70;;;12.50;99.90;;;;;;5006541;28;20049;-88
2021/11/19 09:23:33;;;;;;;19.88;8.00;;;12.50;99.90;;;;;;4991148;28;20038;-87
2021/11/19 09:26:06;;;;;;;18.48;8.40;;;12.50;99.90;;;;;;4986011;28;20030;-87
2021/11/19 09:28:35;;;;;;;21.95;7.95;;;12.60;99.90;;;;;;4984633;28;20507;-88
2021/11/19 09:31:05;;;;;;;22.02;8.48;;;12.60;99.90;;;;;;4989524;28;20034;-87
2021/11/19 09:33:31;;;;;;;16.85;7.85;;;12.60;99.90;;;;;;4999180;28;20037;-90
2021/11/19 09:35:57;;;;;;;19.23;8.43;;;12.60;99.90;;;;;;4988702;28;20455;-89
2021/11/19 09:38:25;;;;;;;21.83;8.65;;;12.60;99.90;;;;;;5006674;28;20112;-83
2021/11/19 09:41:02;;;;;;;23.77;8.40;;;12.60;99.90;;;;;;5006899;28;20045;-87
2021/11/19 09:44:05;;;;;;;16.52;7.88;;;12.60;99.90;;;;;;5000859;28;20038;-87
2021/11/19 09:46:59;;;;;;;22.25;8.60;;;12.60;99.90;;;;;;4984420;28;20038;-86
2021/11/19 09:50:00;;;;;;;20.58;8.30;;;12.60;99.90;;;;;;4998882;28;20407;-88
2021/11/19 09:56:11;;;;;;;21.45;8.20;;;12.70;99.90;;;;;;5006432;28;20103;-87
2021/11/19 09:58:48;;;;;;;16.42;8.05;;;12.60;99.90;;;;;;4992156;28;20095;-83
2021/11/19 10:01:46;;;;;;;19.73;7.07;;;12.70;99.90;;;;;;5010000;28;20132;-81
2021/11/19 10:04:36;;;;;;;21.40;7.38;;;12.70;99.90;;;;;;5010071;28;20526;-82
2021/11/19 10:07:28;;;;;;;22.38;8.02;;;12.70;99.90;;;;;;5011730;28;20048;-83
2021/11/19 10:10:12;;;;;;;17.33;7.30;;;12.70;99.90;;;;;;5007771;28;20041;-86
2021/11/19 10:12:49;;;;;;;16.50;7.00;;;12.80;99.90;;;;;;4991158;28;20048;-89
2021/11/19 10:15:21;;;;;;;22.00;6.55;;;12.80;99.90;;;;;;5005594;28;20029;-85
2021/11/19 10:18:04;;;;;;;17.65;5.75;;;12.80;99.90;;;;;;4981310;28;20053;-85
2021/11/19 10:21:01;;;;;;;19.85;6.05;;;12.80;99.90;;;;;;4996771;28;20038;-83
2021/11/19 10:23:34;;;;;;;16.27;5.80;;;12.80;99.90;;;;;;5009608;28;20068;-83
2021/11/19 10:26:23;;;;;;;20.25;6.13;;;12.80;99.90;;;;;;4996155;28;20029;-83
2021/11/19 10:29:06;;;;;;;13.35;5.20;;;12.80;99.90;;;;;;5010918;28;20065;-84
2021/11/19 10:31:32;;;;;;;15.18;5.28;;;12.80;99.90;;;;;;5010185;28;20045;-84
2021/11/19 10:34:16;;;;;;;21.48;5.90;;;12.80;99.90;;;;;;4993562;28;20510;-85
2021/11/19 10:37:07;;;;;;;12.98;5.53;;;12.80;99.90;;;;;;5014699;28;20064;-83
2021/11/19 10:39:59;;;;;;;17.00;4.87;;;12.90;99.90;;;;;;4993870;28;20046;-83
2021/11/19 10:42:55;;;;;;;16.52;5.20;;;12.80;99.90;;;;;;4998718;28;20396;-84
2021/11/19 10:45:46;;;;;;;14.70;5.68;;;12.90;99.90;;;;;;5000243;28;20132;-84
2021/11/19 10:48:35;;;;;;;15.75;5.55;;;12.90;99.90;;;;;;5004467;28;20045;-84
2021/11/19 10:51:31;;;;;;;11.68;4.72;;;12.90;99.90;;;;;;4989412;28;20119;-84
2021/11/19 10:54:26;;;;;;;15.80;4.57;;;12.90;99.90;;;;;;4986000;28;20045;-85
2021/11/19 10:57:33;;;;;;;16.23;4.85;;;12.90;99.90;;;;;;4997035;28;20500;-84
2021/11/19 11:00:11;;;;;;;14.25;4.60;;;12.90;99.90;;;;;;4958957;28;20397;-83
2021/11/19 11:02:57;;;;;;;13.20;4.30;;;13.00;99.90;;;;;;5007559;28;20495;-84
2021/11/19 11:05:42;;;;;;;20.80;4.50;;;12.90;99.90;;;;;;4990484;28;20120;-84
2021/11/19 11:08:24;;;;;;;13.02;4.40;;;13.00;99.90;;;;;;5003215;28;20033;-84
2021/11/19 11:11:03;;;;;;;14.40;4.35;;;13.00;99.90;;;;;;5003600;28;20077;-84
2021/11/19 11:13:41;;;;;;;11.18;4.22;;;13.00;99.90;;;;;;4999481;28;20522;-83
2021/11/19 11:16:27;;;;;;;13.65;4.70;;;13.00;99.90;;;;;;5013420;28;20056;-84
2021/11/19 11:19:01;;;;;;;11.50;5.30;;;13.00;99.90;;;;;;5026670;28;20034;-83
2021/11/19 11:21:39;;;;;;;11.73;4.45;;;13.00;99.90;;;;;;5000670;28;20030;-84
2021/11/19 11:24:20;;;;;;;14.70;4.38;;;13.00;99.90;;;;;;4996248;28;20686;-84
2021/11/19 11:26:51;;;;;;;17.98;4.80;;;13.00;99.90;;;;;;4998015;28;20041;-83
2021/11/19 11:29:16;;;;;;;12.32;4.32;;;13.00;99.90;;;;;;5001962;28;20076;-83
2021/11/19 11:32:05;;;;;;;13.73;4.78;;;13.00;99.90;;;;;;4996876;28;20044;-84
2021/11/19 11:34:36;;;;;;;15.82;4.90;;;13.00;99.90;;;;;;5009353;28;20041;-84
2021/11/19 11:37:11;;;;;;;11.25;4.93;;;13.00;99.90;;;;;;4997606;28;20045;-83
2021/11/19 11:39:55;;;;;;;20.00;4.72;;;13.00;99.90;;;;;;4996591;28;20082;-84
2021/11/19 11:42:26;;;;;;;11.30;5.28;;;12.90;99.90;;;;;;5002053;28;20065;-84
2021/11/19 11:44:54;;;;;;;14.20;4.68;;;13.00;99.90;;;;;;5013367;28;20093;-84
2021/11/19 11:47:38;;;;;;;14.15;4.97;;;12.90;99.90;;;;;;4999392;28;20041;-84
2021/11/19 11:51:00;;;;;;;11.95;4.70;;;13.00;99.90;;;;;;5011620;28;20040;-83
2021/11/19 11:54:03;;;;;;;17.75;4.40;;;13.00;99.90;;;;;;4911787;29;20712;-84
2021/11/19 11:56:32;;;;;;;13.38;4.20;;;12.90;99.90;;;;;;5001603;28;20041;-84
2021/11/19 11:59:07;;;;;;;13.60;4.97;;;12.90;99.90;;;;;;5006432;28;20029;-84
2021/11/19 12:01:44;;;;;;;16.00;4.85;;;12.90;99.90;;;;;;5005272;28;20400;-84
2021/11/19 12:04:33;;;;;;;15.70;4.82;;;12.90;99.90;;;;;;5008744;28;20041;-84
2021/11/19 12:07:30;;;;;;;11.77;4.32;;;12.90;99.90;;;;;;5011676;28;20456;-84
2021/11/19 12:10:18;;;;;;;9.93;4.18;;;12.90;99.90;;;;;;4995910;28;20067;-83
2021/11/19 12:12:53;;;;;;;19.70;5.07;;;12.90;99.90;;;;;;5005969;28;20033;-84
2021/11/19 12:15:40;;;;;;;16.55;4.63;;;12.90;99.90;;;;;;5002398;28;20037;-84
2021/11/19 12:18:33;;;;;;;15.48;4.72;;;13.00;99.90;;;;;;5005751;28;20037;-84
2021/11/19 12:21:08;;;;;;;16.90;5.57;;;13.00;99.90;;;;;;5000972;28;20044;-87
2021/11/19 12:24:07;;;;;;;8.07;3.92;;;13.00;99.90;;;;;;5007654;28;20044;-83
2021/11/19 12:26:58;;;;;;;12.77;4.43;;;13.00;99.90;;;;;;4937853;28;20502;-84
2021/11/19 12:30:01;;;;;;;12.05;4.63;;;13.40;99.90;;;;;;4996490;28;20030;-84
2021/11/19 12:32:36;;;;;;;12.57;4.10;;;13.00;99.90;;;;;;5004158;28;20037;-87
2021/11/19 12:35:09;;;;;;;10.23;3.80;;;13.00;99.90;;;;;;4999598;28;20061;-83
2021/11/19 12:38:03;;;;;;;9.85;3.70;;;13.10;99.90;;;;;;4990638;28;20052;-85
2021/11/19 12:41:01;;;;;;;11.43;3.85;;;13.10;99.90;;;;;;4993633;28;20041;-89
2021/11/19 12:47:59;;;;;;;11.93;4.63;;;13.10;99.90;;;;;;4909231;28;20042;-91
2021/11/19 12:51:23;;;;;;;13.52;3.60;;;13.10;99.90;;;;;;4985759;28;20029;-91
2021/11/19 12:54:08;;;;;;;13.77;4.18;;;13.20;99.90;;;;;;4924655;29;20507;-89
2021/11/19 12:56:44;;;;;;;9.68;3.33;;;13.10;99.90;;;;;;5006210;28;20120;-90
2021/11/19 12:59:18;;;;;;;13.68;3.60;;;13.10;99.90;;;;;;4990662;28;20117;-87
2021/11/19 13:02:07;;;;;;;14.73;3.67;;;13.20;99.90;;;;;;4998974;28;20053;-91
2021/11/19 13:04:49;;;;;;;18.38;4.57;;;13.20;99.90;;;;;;4992447;28;20112;-91
2021/11/19 13:07:34;;;;;;;9.43;3.60;;;13.30;99.90;;;;;;4986360;28;20129;-91